createdAt,value
2023-10-16T00:02:47.568Z,88.77
2023-10-16T00:05:46.289Z,88.82
2023-10-16T00:08:37.668Z,88.82
2023-10-16T00:11:28.490Z,88.86
2023-10-16T00:14:25.816Z,88.79
2023-10-16T00:17:17.191Z,88.79
2023-10-16T00:20:17.732Z,88.92
2023-10-16T00:23:13.044Z,88.95
2023-10-16T00:26:04.678Z,88.90
2023-10-16T00:29:18.650Z,88.96
2023-10-16T00:32:10.700Z,88.98
2023-10-16T00:35:01.615Z,88.92
2023-10-16T00:37:52.421Z,89.04
2023-10-16T00:41:06.432Z,89.11
2023-10-16T00:43:58.342Z,89.13
2023-10-16T00:46:54.284Z,89.13
2023-10-16T00:49:45.156Z,89.08
2023-10-16T00:52:36.054Z,89.08
2023-10-16T00:55:26.760Z,89.14
2023-10-16T00:58:18.689Z,89.07
2023-10-16T01:01:20.014Z,89.00
2023-10-16T01:04:12.226Z,89.02
2023-10-16T01:07:03.033Z,88.90
2023-10-16T01:09:53.867Z,88.82
2023-10-16T01:12:56.092Z,88.74
2023-10-16T01:15:52.079Z,88.59
2023-10-16T01:18:42.961Z,88.60
2023-10-16T01:21:34.727Z,88.53
2023-10-16T01:24:25.997Z,88.47
2023-10-16T01:27:28.411Z,88.41
2023-10-16T01:30:20.794Z,88.34
2023-10-16T01:33:11.632Z,88.30
2023-10-16T01:36:08.321Z,88.18
2023-10-16T01:39:06.425Z,88.12
2023-10-16T01:41:57.245Z,88.12
2023-10-16T01:44:52.864Z,87.93
2023-10-16T01:47:44.062Z,87.93
2023-10-16T01:50:34.898Z,87.89
2023-10-16T01:53:34.103Z,87.81
2023-10-16T01:56:24.932Z,87.70
2023-10-16T01:59:15.737Z,87.69
2023-10-16T02:02:06.606Z,87.60
2023-10-16T02:04:59.657Z,87.54
2023-10-16T02:07:51.655Z,87.51
2023-10-16T02:10:45.523Z,87.48
2023-10-16T02:13:36.769Z,87.44
2023-10-16T02:16:29.137Z,87.40
2023-10-16T02:19:20.440Z,87.34
2023-10-16T02:22:12.849Z,87.24
2023-10-16T02:25:09.702Z,87.19
2023-10-16T02:28:00.688Z,87.21
2023-10-16T02:30:51.666Z,87.18
2023-10-16T02:33:47.782Z,87.15
2023-10-16T02:36:39.053Z,87.09
2023-10-16T02:39:50.078Z,87.12
2023-10-16T02:42:41.519Z,87.11
2023-10-16T02:45:34.689Z,87.04
2023-10-16T02:48:25.585Z,87.03
2023-10-16T02:51:17.699Z,87.03
2023-10-16T02:54:09.161Z,87.02
2023-10-16T02:57:00.780Z,87.11
2023-10-16T02:59:51.628Z,87.10
2023-10-16T03:02:42.518Z,87.16
2023-10-16T03:05:33.920Z,87.15
2023-10-16T03:08:31.948Z,87.25
2023-10-16T03:11:22.733Z,87.24
2023-10-16T03:14:13.497Z,87.26
2023-10-16T03:17:10.457Z,87.18
2023-10-16T03:20:08.957Z,87.18
2023-10-16T03:23:01.244Z,87.27
2023-10-16T03:25:52.120Z,87.34
2023-10-16T03:28:42.869Z,87.30
2023-10-16T03:31:41.253Z,87.35
2023-10-16T03:34:32.767Z,87.40
2023-10-16T03:37:25.641Z,87.32
2023-10-16T03:40:17.864Z,87.41
2023-10-16T03:43:09.702Z,87.30
2023-10-16T03:46:04.209Z,87.30
2023-10-16T03:48:58.245Z,87.35
2023-10-16T03:51:51.903Z,87.44
2023-10-16T03:54:42.902Z,87.52
2023-10-16T03:57:35.270Z,87.57
2023-10-16T04:00:44.962Z,87.60
2023-10-16T04:03:56.241Z,87.66
2023-10-16T04:06:48.164Z,87.42
2023-10-16T04:09:50.979Z,87.42
2023-10-16T04:12:52.561Z,87.31
2023-10-16T04:15:45.317Z,87.22
2023-10-16T04:18:41.127Z,87.07
2023-10-16T04:21:38.713Z,87.02
2023-10-16T04:24:29.941Z,86.79
2023-10-16T04:27:22.482Z,86.82
2023-10-16T04:30:33.540Z,86.70
2023-10-16T04:33:47.218Z,86.63
2023-10-16T04:36:57.024Z,86.62
2023-10-16T04:39:57.150Z,86.47
2023-10-16T04:42:51.341Z,86.50
2023-10-16T04:46:00.912Z,86.37
2023-10-16T04:48:56.006Z,86.37
2023-10-16T04:52:09.929Z,86.25
2023-10-16T04:55:03.248Z,86.16
2023-10-16T04:58:14.014Z,86.16
2023-10-16T05:01:13.159Z,86.11
2023-10-16T05:04:36.024Z,86.15
2023-10-16T05:07:46.600Z,86.05
2023-10-16T05:10:52.844Z,86.10
2023-10-16T05:14:19.090Z,86.19
2023-10-16T05:17:28.367Z,86.30
2023-10-16T05:20:37.800Z,86.30
2023-10-16T05:24:06.823Z,86.40
2023-10-16T05:27:16.808Z,86.40
2023-10-16T05:30:26.867Z,86.52
2023-10-16T05:33:36.357Z,86.54
2023-10-16T05:36:46.018Z,86.54
2023-10-16T05:39:55.582Z,86.65
2023-10-16T05:43:05.226Z,86.63
2023-10-16T05:46:14.769Z,86.73
2023-10-16T05:49:23.962Z,86.57
2023-10-16T05:52:33.280Z,86.62
2023-10-16T05:55:42.736Z,86.68
2023-10-16T05:58:52.134Z,86.52
2023-10-16T06:02:01.486Z,86.48
2023-10-16T06:05:10.682Z,86.41
2023-10-16T06:08:20.330Z,86.48
2023-10-16T06:11:29.901Z,86.48
2023-10-16T06:14:21.839Z,86.38
2023-10-16T06:17:17.339Z,86.34
2023-10-16T06:20:13.247Z,86.24
2023-10-16T06:23:05.800Z,86.05
2023-10-16T06:25:56.873Z,85.95
2023-10-16T06:28:50.625Z,85.73
2023-10-16T06:31:50.764Z,85.67
2023-10-16T06:34:42.878Z,85.85
2023-10-16T06:37:33.693Z,85.74
2023-10-16T06:40:27.206Z,85.50
2023-10-16T06:43:18.144Z,85.52
2023-10-16T06:46:12.197Z,85.45
2023-10-16T06:49:02.995Z,85.38
2023-10-16T06:51:57.877Z,85.50
2023-10-16T06:54:49.922Z,85.40
2023-10-16T06:57:40.733Z,85.19
2023-10-16T07:00:34.595Z,85.21
2023-10-16T07:03:26.313Z,85.04
2023-10-16T07:06:17.232Z,85.09
2023-10-16T07:09:07.974Z,84.92
2023-10-16T07:12:04.504Z,84.75
2023-10-16T07:14:58.951Z,84.88
2023-10-16T07:17:51.847Z,84.62
2023-10-16T07:21:14.794Z,84.61
2023-10-16T07:24:05.948Z,84.89
2023-10-16T07:26:57.112Z,84.58
2023-10-16T07:29:48.054Z,84.64
2023-10-16T07:32:38.900Z,84.55
2023-10-16T07:35:29.652Z,84.57
2023-10-16T07:38:23.268Z,84.78
2023-10-16T07:41:14.559Z,84.84
2023-10-16T07:44:06.117Z,84.59
2023-10-16T07:46:59.866Z,84.84
2023-10-16T07:49:50.830Z,84.64
2023-10-16T07:52:43.362Z,84.29
2023-10-16T07:55:40.328Z,84.21
2023-10-16T07:58:49.097Z,84.37
2023-10-16T08:01:54.002Z,84.12
2023-10-16T08:04:45.498Z,83.72
2023-10-16T08:07:48.559Z,83.02
2023-10-16T08:10:45.381Z,83.11
2023-10-16T08:13:36.166Z,83.06
2023-10-16T08:16:28.194Z,82.77
2023-10-16T08:19:25.820Z,82.85
2023-10-16T08:22:17.161Z,82.84
2023-10-16T08:25:08.803Z,82.71
2023-10-16T08:28:19.356Z,82.72
2023-10-16T08:31:25.514Z,82.49
2023-10-16T08:34:23.045Z,82.76
2023-10-16T08:37:14.720Z,82.73
2023-10-16T08:40:19.617Z,82.75
2023-10-16T08:43:10.852Z,82.92
2023-10-16T08:46:04.131Z,82.89
2023-10-16T08:48:58.674Z,82.79
2023-10-16T08:51:51.561Z,82.79
2023-10-16T08:54:51.511Z,82.30
2023-10-16T08:57:43.411Z,82.19
2023-10-16T09:00:34.302Z,81.98
2023-10-16T09:03:25.436Z,81.88
2023-10-16T09:06:38.426Z,81.72
2023-10-16T09:09:30.352Z,81.95
2023-10-16T09:12:28.083Z,82.16
2023-10-16T09:15:25.756Z,81.78
2023-10-16T09:18:16.825Z,81.36
2023-10-16T09:21:14.528Z,81.25
2023-10-16T09:24:07.123Z,81.10
2023-10-16T09:26:58.088Z,80.81
2023-10-16T09:29:54.959Z,80.51
2023-10-16T09:32:50.003Z,80.35
2023-10-16T09:35:46.721Z,79.80
2023-10-16T09:38:43.680Z,80.05
2023-10-16T09:41:42.086Z,79.72
2023-10-16T09:44:39.337Z,79.92
2023-10-16T09:47:32.979Z,79.71
2023-10-16T09:50:25.435Z,79.20
2023-10-16T09:53:18.923Z,79.11
2023-10-16T09:56:10.825Z,78.82
2023-10-16T09:59:03.745Z,78.91
2023-10-16T10:02:03.610Z,78.35
2023-10-16T10:05:05.263Z,78.34
2023-10-16T10:08:00.533Z,78.19
2023-10-16T10:11:28.952Z,78.26
2023-10-16T10:14:40.295Z,77.61
2023-10-16T10:17:35.825Z,77.35
2023-10-16T10:20:27.607Z,77.40
2023-10-16T10:23:18.416Z,77.47
2023-10-16T10:26:09.210Z,77.06
2023-10-16T10:29:13.231Z,76.45
2023-10-16T10:32:10.494Z,76.97
2023-10-16T10:35:24.686Z,76.97
2023-10-16T10:38:30.974Z,76.36
2023-10-16T10:41:25.964Z,76.14
2023-10-16T10:44:20.411Z,76.19
2023-10-16T10:47:32.417Z,76.24
2023-10-16T10:50:24.856Z,76.33
2023-10-16T10:53:16.654Z,75.90
2023-10-16T10:56:09.180Z,75.81
2023-10-16T10:59:09.701Z,76.18
2023-10-16T11:02:18.898Z,75.75
2023-10-16T11:05:24.491Z,75.02
2023-10-16T11:08:15.682Z,75.77
2023-10-16T11:11:11.490Z,75.77
2023-10-16T11:14:05.506Z,75.72
2023-10-16T11:16:56.229Z,75.81
2023-10-16T11:19:49.212Z,75.68
2023-10-16T11:22:46.185Z,75.41
2023-10-16T11:25:37.202Z,75.15
2023-10-16T11:28:33.191Z,75.24
2023-10-16T11:31:25.958Z,74.96
2023-10-16T11:34:22.746Z,75.05
2023-10-16T11:37:15.206Z,75.46
2023-10-16T11:40:19.372Z,75.59
2023-10-16T11:43:13.842Z,76.00
2023-10-16T11:46:14.039Z,76.29
2023-10-16T11:49:19.144Z,76.01
2023-10-16T11:52:11.516Z,76.61
2023-10-16T11:55:08.653Z,77.19
2023-10-16T11:57:59.467Z,77.33
2023-10-16T12:00:55.582Z,76.98
2023-10-16T12:03:47.628Z,77.26
2023-10-16T12:06:39.596Z,77.32
2023-10-16T12:09:38.787Z,77.45
2023-10-16T12:12:30.081Z,76.95
2023-10-16T12:15:20.867Z,76.39
2023-10-16T12:18:13.710Z,75.92
2023-10-16T12:21:07.372Z,75.74
2023-10-16T12:23:58.544Z,75.57
2023-10-16T12:26:49.523Z,75.87
2023-10-16T12:29:42.861Z,76.46
2023-10-16T12:32:34.084Z,76.93
2023-10-16T12:35:26.945Z,75.94
2023-10-16T12:38:19.510Z,75.79
2023-10-16T12:41:10.682Z,75.82
2023-10-16T12:44:02.467Z,76.06
2023-10-16T12:46:54.818Z,75.90
2023-10-16T12:49:45.652Z,76.33
2023-10-16T12:52:38.405Z,77.20
2023-10-16T12:55:29.751Z,77.50
2023-10-16T12:58:20.744Z,77.22
2023-10-16T13:01:11.998Z,77.36
2023-10-16T13:04:05.137Z,76.93
2023-10-16T13:06:56.178Z,77.16
2023-10-16T13:09:48.904Z,76.48
2023-10-16T13:12:40.493Z,76.89
2023-10-16T13:15:32.551Z,76.59
2023-10-16T13:18:29.861Z,77.03
2023-10-16T13:21:20.681Z,78.07
2023-10-16T13:24:12.716Z,79.83
2023-10-16T13:27:03.627Z,80.67
2023-10-16T13:29:55.005Z,81.73
2023-10-16T13:32:50.253Z,82.68
2023-10-16T13:35:41.716Z,82.82
2023-10-16T13:38:32.819Z,83.16
2023-10-16T13:41:24.776Z,82.93
2023-10-16T13:44:15.506Z,83.41
2023-10-16T13:47:06.829Z,83.91
2023-10-16T13:49:59.180Z,84.35
2023-10-16T13:52:51.541Z,84.59
2023-10-16T13:55:42.402Z,84.65
2023-10-16T13:58:33.207Z,84.62
2023-10-16T14:01:23.923Z,84.75
2023-10-16T14:04:22.854Z,84.91
2023-10-16T14:07:17.173Z,85.14
2023-10-16T14:10:08.298Z,85.57
2023-10-16T14:13:12.329Z,86.09
2023-10-16T14:16:21.812Z,86.38
2023-10-16T14:19:13.747Z,86.65
2023-10-16T14:22:08.190Z,86.60
2023-10-16T14:24:59.406Z,86.61
2023-10-16T14:27:50.208Z,86.70
2023-10-16T14:30:49.317Z,86.92
2023-10-16T14:33:41.176Z,86.77
2023-10-16T14:36:32.352Z,86.83
2023-10-16T14:39:30.094Z,86.89
2023-10-16T14:42:21.354Z,87.03
2023-10-16T14:45:12.289Z,86.93
2023-10-16T14:48:06.073Z,87.08
2023-10-16T14:50:56.894Z,87.14
2023-10-16T14:53:55.008Z,87.12
2023-10-16T14:56:47.404Z,87.39
2023-10-16T14:59:38.844Z,87.32
2023-10-16T15:02:29.728Z,87.30
2023-10-16T15:05:21.650Z,87.37
2023-10-16T15:08:15.731Z,87.47
2023-10-16T15:11:11.898Z,87.40
2023-10-16T15:14:02.967Z,87.50
2023-10-16T15:16:55.498Z,87.54
2023-10-16T15:19:46.752Z,87.69
2023-10-16T15:22:43.358Z,87.76
2023-10-16T15:25:34.183Z,87.85
2023-10-16T15:28:43.880Z,87.91
2023-10-16T15:31:36.966Z,87.97
2023-10-16T15:34:28.042Z,87.95
2023-10-16T15:37:19.639Z,87.98
2023-10-16T15:40:18.260Z,88.00
2023-10-16T15:43:09.041Z,88.00
2023-10-16T15:45:59.936Z,87.94
2023-10-16T15:48:50.956Z,87.95
2023-10-16T15:51:41.975Z,88.09
2023-10-16T15:54:33.268Z,88.03
2023-10-16T15:57:36.011Z,87.90
2023-10-16T16:00:28.006Z,87.66
2023-10-16T16:03:18.865Z,87.68
2023-10-16T16:06:19.996Z,87.60
2023-10-16T16:09:14.845Z,87.55
2023-10-16T16:12:16.698Z,87.68
2023-10-16T16:15:34.160Z,87.79
2023-10-16T16:18:24.942Z,87.88
2023-10-16T16:21:26.457Z,87.86
2023-10-16T16:24:21.941Z,87.85
2023-10-16T16:27:12.821Z,88.05
2023-10-16T16:30:05.933Z,88.31
2023-10-16T16:33:00.802Z,88.67
2023-10-16T16:35:52.443Z,88.87
2023-10-16T16:38:45.027Z,88.95
2023-10-16T16:41:43.728Z,89.07
2023-10-16T16:44:36.110Z,89.13
2023-10-16T16:47:27.971Z,89.20
2023-10-16T16:50:19.005Z,89.25
2023-10-16T16:53:11.975Z,89.30
2023-10-16T16:56:04.081Z,89.34
2023-10-16T16:58:57.049Z,89.34
2023-10-16T17:01:50.875Z,89.34
2023-10-16T17:04:50.889Z,89.29
2023-10-16T17:07:43.087Z,89.45
2023-10-16T17:10:34.119Z,89.52
2023-10-16T17:13:26.003Z,89.45
2023-10-16T17:16:17.438Z,89.46
2023-10-16T17:19:08.515Z,89.42
2023-10-16T17:21:59.744Z,89.22
2023-10-16T17:24:51.763Z,89.16
2023-10-16T17:27:43.746Z,89.04
2023-10-16T17:30:34.488Z,89.05
2023-10-16T17:33:26.130Z,89.04
2023-10-16T17:36:16.996Z,88.90
2023-10-16T17:39:08.413Z,88.91
2023-10-16T17:42:01.766Z,88.92
2023-10-16T17:44:52.585Z,88.87
2023-10-16T17:47:51.585Z,88.85
2023-10-16T17:50:44.642Z,88.85
2023-10-16T17:53:39.442Z,88.72
2023-10-16T17:56:30.293Z,88.76
2023-10-16T17:59:24.036Z,88.74
2023-10-16T18:02:14.944Z,88.63
2023-10-16T18:05:08.501Z,88.67
2023-10-16T18:07:59.742Z,88.62
2023-10-16T18:11:00.881Z,88.61
2023-10-16T18:13:52.257Z,88.54
2023-10-16T18:16:43.657Z,88.70
2023-10-16T18:19:39.351Z,88.69
2023-10-16T18:22:30.386Z,88.75
2023-10-16T18:25:27.448Z,88.61
2023-10-16T18:28:19.267Z,88.52
2023-10-16T18:31:12.485Z,88.50
2023-10-16T18:34:04.927Z,88.57
2023-10-16T18:37:03.986Z,88.58
2023-10-16T18:39:57.966Z,88.64
2023-10-16T18:42:52.375Z,88.74
2023-10-16T18:45:45.832Z,88.81
2023-10-16T18:48:38.080Z,88.79
2023-10-16T18:51:32.322Z,88.90
2023-10-16T18:54:23.643Z,88.90
2023-10-16T18:57:16.179Z,88.96
2023-10-16T19:00:09.696Z,88.96
2023-10-16T19:03:03.873Z,88.94
2023-10-16T19:05:55.700Z,88.94
2023-10-16T19:08:47.252Z,89.02
2023-10-16T19:11:39.186Z,89.10
2023-10-16T19:14:30.946Z,89.05
2023-10-16T19:17:21.860Z,89.11
2023-10-16T19:20:12.716Z,89.14
2023-10-16T19:23:06.534Z,89.06
2023-10-16T19:26:19.961Z,89.12
2023-10-16T19:29:10.752Z,89.15
2023-10-16T19:32:02.860Z,89.15
2023-10-16T19:34:54.525Z,89.15
2023-10-16T19:37:45.535Z,89.21
2023-10-16T19:40:38.564Z,89.22
2023-10-16T19:43:29.655Z,89.26
2023-10-16T19:46:21.333Z,89.31
2023-10-16T19:49:12.192Z,89.29
2023-10-16T19:52:07.870Z,89.28
2023-10-16T19:54:58.933Z,89.27
2023-10-16T19:57:53.066Z,89.25
2023-10-16T20:00:43.948Z,89.23
2023-10-16T20:03:35.437Z,89.40
2023-10-16T20:06:30.869Z,89.41
2023-10-16T20:09:31.554Z,89.37
2023-10-16T20:12:22.704Z,89.33
2023-10-16T20:15:16.678Z,89.26
2023-10-16T20:18:11.791Z,89.18
2023-10-16T20:21:06.162Z,89.17
2023-10-16T20:24:02.041Z,89.14
2023-10-16T20:26:53.229Z,89.16
2023-10-16T20:29:44.217Z,89.09
2023-10-16T20:32:34.993Z,89.14
2023-10-16T20:35:26.846Z,89.20
2023-10-16T20:38:19.216Z,89.23
2023-10-16T20:41:10.128Z,89.26
2023-10-16T20:44:00.961Z,89.26
2023-10-16T20:46:52.893Z,89.24
2023-10-16T20:49:43.730Z,89.23
2023-10-16T20:52:35.036Z,89.33
2023-10-16T20:55:25.972Z,89.32
2023-10-16T20:58:19.437Z,89.31
2023-10-16T21:01:13.454Z,89.27
2023-10-16T21:04:04.384Z,89.32
2023-10-16T21:06:57.347Z,89.19
2023-10-16T21:09:48.079Z,89.27
2023-10-16T21:12:42.788Z,89.20
2023-10-16T21:15:34.464Z,89.12
2023-10-16T21:18:26.929Z,89.12
2023-10-16T21:21:17.987Z,89.10
2023-10-16T21:24:08.833Z,89.00
2023-10-16T21:27:00.838Z,88.89
2023-10-16T21:29:52.494Z,88.81
2023-10-16T21:32:43.882Z,88.76
2023-10-16T21:35:34.704Z,88.75
2023-10-16T21:38:25.709Z,88.58
2023-10-16T21:41:17.078Z,88.56
2023-10-16T21:44:07.844Z,88.53
2023-10-16T21:46:58.635Z,88.49
2023-10-16T21:49:49.536Z,88.46
2023-10-16T21:52:40.443Z,88.43
2023-10-16T21:55:31.226Z,88.49
2023-10-16T21:58:21.957Z,88.48
2023-10-16T22:01:17.755Z,88.44
2023-10-16T22:04:08.664Z,88.59
2023-10-16T22:06:59.623Z,88.73
2023-10-16T22:09:50.411Z,88.73
2023-10-16T22:12:41.164Z,88.84
2023-10-16T22:15:36.480Z,88.86
2023-10-16T22:18:27.495Z,88.87
2023-10-16T22:21:18.359Z,88.89
2023-10-16T22:24:13.571Z,88.89
2023-10-16T22:27:04.356Z,88.83
2023-10-16T22:29:55.254Z,88.93
2023-10-16T22:32:46.047Z,88.79
2023-10-16T22:35:42.915Z,88.81
2023-10-16T22:38:33.620Z,88.78
2023-10-16T22:41:24.324Z,88.74
2023-10-16T22:44:15.281Z,88.72
2023-10-16T22:47:06.222Z,88.92
2023-10-16T22:49:57.076Z,88.97
2023-10-16T22:52:48.344Z,88.83
2023-10-16T22:55:39.461Z,89.06
2023-10-16T22:58:30.243Z,89.19
2023-10-16T23:01:23.103Z,89.14
2023-10-16T23:04:15.137Z,89.05
2023-10-16T23:07:06.955Z,88.89
2023-10-16T23:09:57.925Z,88.87
2023-10-16T23:12:48.801Z,88.91
2023-10-16T23:15:44.977Z,88.86
2023-10-16T23:18:35.973Z,88.88
2023-10-16T23:21:26.763Z,88.80
2023-10-16T23:24:18.586Z,88.60
2023-10-16T23:27:10.725Z,88.51
2023-10-16T23:30:04.698Z,88.46
2023-10-16T23:32:55.813Z,88.44
2023-10-16T23:35:59.456Z,88.40
2023-10-16T23:38:50.626Z,88.47
2023-10-16T23:41:46.857Z,88.34
2023-10-16T23:44:42.194Z,88.40
2023-10-16T23:47:34.642Z,88.52
2023-10-16T23:50:40.697Z,88.69
2023-10-16T23:53:31.395Z,88.67
2023-10-16T23:56:28.446Z,88.63
2023-10-16T23:59:23.573Z,88.63
